createdAt,value
2018-05-12T00:02:07.144Z,12.77
2018-05-12T00:04:34.721Z,12.77
2018-05-12T00:07:02.326Z,12.73
2018-05-12T00:09:29.919Z,12.69
2018-05-12T00:11:57.523Z,12.69
2018-05-12T00:14:25.076Z,12.67
2018-05-12T00:16:52.626Z,12.71
2018-05-12T00:19:20.257Z,12.73
2018-05-12T00:21:47.844Z,12.71
2018-05-12T00:24:15.431Z,12.69
2018-05-12T00:26:42.985Z,12.70
2018-05-12T00:29:10.726Z,12.61
2018-05-12T00:31:38.311Z,12.57
2018-05-12T00:34:05.884Z,12.59
2018-05-12T00:36:33.470Z,12.57
2018-05-12T00:39:01.054Z,12.57
2018-05-12T00:41:28.659Z,12.52
2018-05-12T00:43:56.233Z,12.53
2018-05-12T00:46:23.862Z,12.56
2018-05-12T00:48:51.427Z,12.57
2018-05-12T00:51:18.982Z,12.56
2018-05-12T00:53:46.552Z,12.55
2018-05-12T00:56:14.098Z,12.52
2018-05-12T00:58:41.695Z,12.46
2018-05-12T01:01:09.281Z,12.42
2018-05-12T01:03:36.899Z,12.46
2018-05-12T01:06:04.474Z,12.51
2018-05-12T01:08:32.134Z,12.51
2018-05-12T01:10:59.725Z,12.46
2018-05-12T01:13:27.300Z,12.39
2018-05-12T01:15:54.884Z,12.39
2018-05-12T01:18:22.503Z,12.30
2018-05-12T01:20:50.112Z,12.29
2018-05-12T01:23:17.704Z,12.34
2018-05-12T01:25:45.329Z,12.26
2018-05-12T01:28:12.907Z,12.18
2018-05-12T01:30:40.567Z,12.10
2018-05-12T01:33:08.171Z,12.05
2018-05-12T01:35:35.724Z,12.06
2018-05-12T01:38:03.345Z,12.04
2018-05-12T01:40:30.947Z,11.98
2018-05-12T01:42:58.528Z,11.99
2018-05-12T01:45:26.109Z,12.03
2018-05-12T01:47:53.681Z,12.00
2018-05-12T01:50:21.260Z,11.99
2018-05-12T01:52:48.845Z,11.96
2018-05-12T01:55:16.474Z,11.91
2018-05-12T01:57:44.060Z,11.91
2018-05-12T02:00:11.684Z,11.86
2018-05-12T02:02:39.256Z,11.81
2018-05-12T02:05:06.888Z,11.78
2018-05-12T02:07:34.469Z,11.75
2018-05-12T02:10:02.243Z,11.77
2018-05-12T02:12:29.815Z,11.83
2018-05-12T02:14:57.403Z,11.85
2018-05-12T02:17:25.113Z,11.83
2018-05-12T02:19:52.689Z,11.79
2018-05-12T02:22:20.269Z,11.79
2018-05-12T02:24:47.857Z,11.73
2018-05-12T02:27:15.431Z,11.73
2018-05-12T02:29:43.068Z,11.66
2018-05-12T02:32:10.641Z,11.59
2018-05-12T02:34:38.232Z,11.59
2018-05-12T02:37:05.772Z,11.60
2018-05-12T02:39:33.342Z,11.58
2018-05-12T02:42:00.917Z,11.58
2018-05-12T02:44:28.480Z,11.53
2018-05-12T02:46:56.083Z,11.53
2018-05-12T02:49:23.743Z,11.45
2018-05-12T02:51:51.305Z,11.46
2018-05-12T02:54:18.908Z,11.42
2018-05-12T02:56:46.496Z,11.33
2018-05-12T02:59:14.084Z,11.31
2018-05-12T03:01:41.654Z,11.35
2018-05-12T03:04:09.247Z,11.34
2018-05-12T03:06:36.972Z,11.34
2018-05-12T03:09:04.592Z,11.24
2018-05-12T03:11:32.164Z,11.16
2018-05-12T03:13:59.733Z,11.17
2018-05-12T03:16:27.359Z,11.15
2018-05-12T03:18:54.922Z,11.18
2018-05-12T03:21:22.468Z,11.22
2018-05-12T03:23:50.035Z,11.23
2018-05-12T03:26:17.713Z,11.26
2018-05-12T03:28:45.300Z,11.32
2018-05-12T03:31:12.944Z,11.36
2018-05-12T03:33:40.511Z,11.39
2018-05-12T03:36:08.085Z,11.43
2018-05-12T03:38:35.805Z,11.47
2018-05-12T03:41:03.409Z,11.55
2018-05-12T03:43:30.985Z,11.67
2018-05-12T03:45:58.579Z,11.73
2018-05-12T03:48:26.274Z,11.81
2018-05-12T03:50:53.892Z,11.86
2018-05-12T03:53:21.479Z,11.88
2018-05-12T03:55:49.049Z,11.89
2018-05-12T03:58:16.659Z,11.93
2018-05-12T04:00:44.277Z,11.90
2018-05-12T04:03:11.876Z,11.99
2018-05-12T04:05:51.234Z,12.05
2018-05-12T04:08:30.709Z,12.06
2018-05-12T04:14:00.839Z,12.21
2018-05-12T04:16:28.472Z,12.23
2018-05-12T04:18:56.037Z,12.28
2018-05-12T04:21:23.621Z,12.28
2018-05-12T04:23:51.196Z,12.33
2018-05-12T04:26:18.774Z,12.36
2018-05-12T04:28:46.400Z,12.40
2018-05-12T04:31:14.086Z,12.44
2018-05-12T04:33:41.675Z,12.52
2018-05-12T04:36:09.279Z,12.62
2018-05-12T04:38:36.874Z,12.74
2018-05-12T04:41:04.465Z,12.85
2018-05-12T04:43:32.044Z,12.87
2018-05-12T04:45:59.673Z,12.88
2018-05-12T04:48:27.268Z,12.84
2018-05-12T04:50:54.876Z,12.97
2018-05-12T04:53:22.434Z,13.02
2018-05-12T04:55:49.997Z,13.11
2018-05-12T04:58:17.568Z,13.26
2018-05-12T05:00:45.161Z,13.37
2018-05-12T05:03:12.784Z,13.50
2018-05-12T05:05:40.355Z,13.54
2018-05-12T05:08:07.922Z,13.57
2018-05-12T05:10:35.487Z,13.53
2018-05-12T05:13:03.039Z,13.50
2018-05-12T05:15:30.627Z,13.56
2018-05-12T05:17:58.197Z,13.63
2018-05-12T05:20:25.836Z,13.74
2018-05-12T05:22:53.425Z,13.94
2018-05-12T05:25:20.988Z,14.14
2018-05-12T05:27:48.593Z,14.40
2018-05-12T05:30:16.155Z,14.57
2018-05-12T05:32:43.722Z,14.73
2018-05-12T05:35:11.296Z,14.89
2018-05-12T05:37:38.903Z,15.09
2018-05-12T05:40:06.581Z,15.34
2018-05-12T05:42:34.148Z,15.57
2018-05-12T05:45:01.731Z,15.77
2018-05-12T05:47:29.303Z,15.94
2018-05-12T05:49:56.883Z,16.13
2018-05-12T05:52:24.447Z,16.29
2018-05-12T05:54:52.064Z,16.56
2018-05-12T05:57:19.621Z,16.71
2018-05-12T05:59:47.199Z,17.04
2018-05-12T06:02:14.801Z,17.50
2018-05-12T06:04:42.466Z,17.84
2018-05-12T06:07:10.092Z,18.05
2018-05-12T06:09:37.645Z,18.44
2018-05-12T06:12:05.272Z,18.86
2018-05-12T06:14:32.878Z,19.24
2018-05-12T06:17:00.441Z,19.50
2018-05-12T06:19:28.005Z,19.55
2018-05-12T06:21:55.684Z,19.78
2018-05-12T06:24:23.262Z,20.08
2018-05-12T06:26:50.856Z,20.43
2018-05-12T06:29:18.539Z,20.79
2018-05-12T06:31:46.166Z,20.74
2018-05-12T06:34:13.720Z,20.41
2018-05-12T06:36:41.326Z,20.21
2018-05-12T06:39:09.114Z,20.13
2018-05-12T06:41:36.827Z,20.31
2018-05-12T06:44:04.384Z,20.72
2018-05-12T06:46:32.172Z,21.19
2018-05-12T06:48:59.753Z,21.70
2018-05-12T06:51:27.352Z,22.23
2018-05-12T06:53:54.949Z,22.50
2018-05-12T06:56:22.536Z,22.61
2018-05-12T06:58:50.161Z,22.95
2018-05-12T07:01:17.756Z,23.18
2018-05-12T07:03:45.413Z,23.48
2018-05-12T07:06:13.011Z,23.38
2018-05-12T07:08:40.736Z,22.33
2018-05-12T07:11:08.336Z,21.81
2018-05-12T07:13:35.891Z,22.11
2018-05-12T07:16:03.481Z,22.42
2018-05-12T07:18:31.100Z,22.47
2018-05-12T07:20:58.817Z,22.43
2018-05-12T07:23:26.392Z,22.05
2018-05-12T07:25:54.125Z,21.53
2018-05-12T07:28:21.725Z,21.29
2018-05-12T07:30:49.498Z,21.37
2018-05-12T07:33:17.320Z,21.63
2018-05-12T07:35:44.892Z,21.83
2018-05-12T07:38:12.508Z,22.23
2018-05-12T07:40:40.081Z,22.17
2018-05-12T07:43:07.992Z,22.16
2018-05-12T07:45:35.814Z,21.96
2018-05-12T07:48:03.443Z,21.85
2018-05-12T07:50:31.014Z,21.73
2018-05-12T07:52:58.660Z,21.87
2018-05-12T07:55:26.305Z,21.93
2018-05-12T07:57:53.878Z,21.68
2018-05-12T08:00:21.483Z,21.76
2018-05-12T08:02:49.060Z,21.69
2018-05-12T08:05:16.643Z,21.78
2018-05-12T08:07:44.470Z,21.75
2018-05-12T08:10:12.170Z,21.96
2018-05-12T08:12:39.907Z,21.89
2018-05-12T08:15:07.479Z,21.74
2018-05-12T08:17:35.127Z,21.71
2018-05-12T08:20:02.963Z,22.08
2018-05-12T08:22:30.681Z,22.32
2018-05-12T08:24:58.413Z,22.80
2018-05-12T08:27:26.128Z,23.51
2018-05-12T08:29:53.748Z,24.15
2018-05-12T08:32:21.459Z,24.00
2018-05-12T08:34:49.172Z,24.28
2018-05-12T08:37:16.862Z,24.62
2018-05-12T08:39:44.499Z,24.56
2018-05-12T08:42:12.196Z,24.00
2018-05-12T08:44:39.777Z,23.49
2018-05-12T08:47:07.360Z,22.88
2018-05-12T08:49:34.940Z,22.43
2018-05-12T08:52:02.587Z,21.74
2018-05-12T08:54:30.197Z,21.49
2018-05-12T08:56:57.757Z,21.52
2018-05-12T08:59:25.314Z,21.39
2018-05-12T09:01:53.169Z,21.47
2018-05-12T09:04:20.762Z,21.62
2018-05-12T09:06:48.348Z,21.90
2018-05-12T09:09:15.916Z,22.31
2018-05-12T09:11:43.540Z,22.93
2018-05-12T09:14:11.097Z,23.34
2018-05-12T09:16:38.661Z,23.36
2018-05-12T09:19:06.284Z,23.32
2018-05-12T09:21:33.877Z,23.03
2018-05-12T09:24:01.457Z,22.71
2018-05-12T09:26:29.022Z,22.60
2018-05-12T09:28:56.633Z,22.12
2018-05-12T09:31:24.230Z,22.10
2018-05-12T09:33:51.813Z,22.37
2018-05-12T09:36:19.394Z,22.68
2018-05-12T09:38:47.146Z,22.77
2018-05-12T09:41:14.725Z,22.41
2018-05-12T09:43:42.295Z,22.43
2018-05-12T09:46:09.950Z,22.65
2018-05-12T09:48:37.604Z,22.77
2018-05-12T09:51:05.223Z,23.12
2018-05-12T09:53:33.046Z,23.21
2018-05-12T09:56:00.764Z,23.44
2018-05-12T09:58:28.584Z,23.44
2018-05-12T10:00:56.292Z,23.68
2018-05-12T10:03:24.016Z,24.09
2018-05-12T10:05:51.623Z,24.48
2018-05-12T10:08:19.189Z,24.33
2018-05-12T10:10:46.865Z,23.40
2018-05-12T10:13:14.592Z,22.89
2018-05-12T10:15:42.411Z,22.72
2018-05-12T10:18:09.992Z,22.54
2018-05-12T10:20:37.751Z,22.22
2018-05-12T10:23:05.450Z,21.99
2018-05-12T10:25:33.362Z,21.77
2018-05-12T10:28:01.350Z,21.61
2018-05-12T10:30:29.262Z,21.53
2018-05-12T10:32:57.270Z,21.80
2018-05-12T10:35:25.189Z,22.56
2018-05-12T10:37:53.007Z,23.30
2018-05-12T10:40:21.031Z,23.72
2018-05-12T10:42:49.050Z,23.96
2018-05-12T10:45:17.067Z,24.10
2018-05-12T10:47:44.986Z,24.03
2018-05-12T10:50:13.005Z,23.88
2018-05-12T10:52:41.024Z,23.76
2018-05-12T10:55:08.604Z,23.64
2018-05-12T10:57:36.185Z,23.37
2018-05-12T11:00:03.942Z,23.01
2018-05-12T11:02:31.520Z,22.97
2018-05-12T11:04:59.093Z,23.24
2018-05-12T11:07:26.682Z,23.47
2018-05-12T11:09:54.297Z,23.59
2018-05-12T11:12:21.909Z,23.55
2018-05-12T11:14:49.469Z,23.63
2018-05-12T11:17:17.047Z,23.77
2018-05-12T11:19:44.591Z,23.37
2018-05-12T11:22:12.175Z,23.39
2018-05-12T11:24:39.719Z,23.57
2018-05-12T11:27:07.335Z,23.20
2018-05-12T11:29:34.927Z,23.17
2018-05-12T11:32:02.480Z,22.56
2018-05-12T11:34:30.060Z,22.70
2018-05-12T11:36:58.209Z,22.60
2018-05-12T11:39:25.924Z,22.74
2018-05-12T11:41:54.382Z,22.97
2018-05-12T11:44:23.171Z,23.37
2018-05-12T11:46:50.831Z,23.63
2018-05-12T11:49:18.568Z,23.70
2018-05-12T11:51:51.747Z,23.67
2018-05-12T11:54:20.169Z,23.65
2018-05-12T11:56:50.195Z,23.65
2018-05-12T11:59:17.812Z,23.48
2018-05-12T12:01:45.380Z,23.33
2018-05-12T12:04:12.977Z,23.19
2018-05-12T12:06:40.543Z,23.13
2018-05-12T12:09:08.181Z,23.15
2018-05-12T12:11:35.741Z,23.20
2018-05-12T12:14:03.405Z,23.54
2018-05-12T12:16:30.980Z,23.68
2018-05-12T12:18:58.553Z,23.68
2018-05-12T12:21:26.188Z,23.89
2018-05-12T12:23:53.748Z,23.96
2018-05-12T12:26:21.329Z,23.84
2018-05-12T12:28:48.902Z,24.00
2018-05-12T12:31:16.536Z,24.23
2018-05-12T12:33:44.120Z,23.88
2018-05-12T12:36:11.737Z,23.71
2018-05-12T12:38:39.327Z,23.98
2018-05-12T12:41:06.888Z,24.20
2018-05-12T12:43:34.647Z,24.49
2018-05-12T12:46:02.771Z,24.84
2018-05-12T12:48:30.329Z,24.87
2018-05-12T12:50:57.911Z,24.85
2018-05-12T12:53:25.480Z,24.88
2018-05-12T12:55:53.085Z,24.77
2018-05-12T12:58:20.829Z,24.71
2018-05-12T13:00:48.465Z,24.70
2018-05-12T13:03:16.046Z,24.88
2018-05-12T13:05:52.113Z,24.84
2018-05-12T13:08:19.713Z,24.57
2018-05-12T13:10:47.359Z,24.45
2018-05-12T13:13:14.984Z,24.48
2018-05-12T13:15:42.558Z,24.53
2018-05-12T13:18:10.152Z,24.72
2018-05-12T13:20:37.723Z,24.90
2018-05-12T13:23:05.349Z,24.98
2018-05-12T13:25:32.999Z,24.98
2018-05-12T13:28:00.585Z,24.88
2018-05-12T13:30:28.230Z,24.61
2018-05-12T13:32:55.809Z,24.50
2018-05-12T13:35:23.427Z,24.51
2018-05-12T13:37:51.010Z,24.63
2018-05-12T13:40:18.593Z,24.77
2018-05-12T13:42:46.163Z,24.80
2018-05-12T13:45:13.761Z,24.72
2018-05-12T13:47:41.429Z,24.70
2018-05-12T13:50:09.009Z,24.74
2018-05-12T13:52:36.564Z,24.65
2018-05-12T13:55:04.188Z,24.59
2018-05-12T13:57:31.750Z,24.63
2018-05-12T13:59:59.290Z,24.77
2018-05-12T14:02:26.871Z,24.92
2018-05-12T14:04:54.433Z,24.86
2018-05-12T14:07:22.324Z,24.70
2018-05-12T14:09:49.894Z,24.63
2018-05-12T14:12:17.537Z,24.33
2018-05-12T14:14:45.100Z,24.04
2018-05-12T14:17:12.748Z,23.95
2018-05-12T14:19:40.362Z,23.83
2018-05-12T14:22:07.979Z,23.75
2018-05-12T14:24:35.577Z,23.87
2018-05-12T14:27:03.154Z,23.80
2018-05-12T14:29:30.840Z,23.85
2018-05-12T14:31:58.441Z,23.90
2018-05-12T14:34:25.989Z,23.94
2018-05-12T14:36:53.564Z,23.90
2018-05-12T14:39:21.132Z,23.91
2018-05-12T14:41:48.784Z,23.77
2018-05-12T14:44:16.370Z,23.85
2018-05-12T14:46:43.937Z,23.67
2018-05-12T14:49:11.512Z,23.41
2018-05-12T14:51:39.084Z,23.43
2018-05-12T14:54:06.724Z,23.47
2018-05-12T14:56:34.313Z,23.55
2018-05-12T14:59:01.948Z,23.61
2018-05-12T15:01:29.571Z,23.73
2018-05-12T15:03:57.138Z,23.89
2018-05-12T15:06:24.708Z,24.03
2018-05-12T15:08:52.423Z,24.05
2018-05-12T15:11:19.978Z,24.03
2018-05-12T15:13:47.627Z,23.99
2018-05-12T15:16:15.274Z,23.87
2018-05-12T15:18:42.822Z,23.91
2018-05-12T15:21:10.388Z,23.93
2018-05-12T15:23:37.938Z,23.64
2018-05-12T15:26:05.749Z,23.56
2018-05-12T15:28:33.343Z,23.51
2018-05-12T15:31:00.913Z,23.25
2018-05-12T15:33:28.522Z,23.11
2018-05-12T15:35:56.091Z,23.03
2018-05-12T15:38:23.646Z,22.90
2018-05-12T15:40:51.231Z,22.86
2018-05-12T15:43:18.815Z,22.84
2018-05-12T15:45:46.488Z,22.80
2018-05-12T15:48:14.055Z,22.78
2018-05-12T15:50:41.660Z,22.78
2018-05-12T15:53:09.248Z,22.82
2018-05-12T15:55:36.795Z,22.81
2018-05-12T15:58:04.520Z,22.91
2018-05-12T16:00:32.127Z,23.03
2018-05-12T16:02:59.786Z,23.15
2018-05-12T16:05:27.287Z,23.12
2018-05-12T16:07:54.914Z,23.01
2018-05-12T16:10:22.485Z,22.90
2018-05-12T16:12:50.076Z,22.78
2018-05-12T16:15:17.654Z,22.64
2018-05-12T16:17:45.319Z,22.46
2018-05-12T16:20:12.933Z,22.28
2018-05-12T16:22:40.503Z,22.09
2018-05-12T16:25:08.069Z,21.91
2018-05-12T16:27:35.637Z,21.80
2018-05-12T16:30:03.313Z,21.70
2018-05-12T16:32:30.929Z,21.62
2018-05-12T16:34:58.551Z,21.55
2018-05-12T16:37:26.249Z,21.51
2018-05-12T16:39:53.767Z,21.46
2018-05-12T16:42:21.329Z,21.39
2018-05-12T16:44:48.888Z,21.35
2018-05-12T16:47:16.537Z,21.31
2018-05-12T16:49:44.164Z,21.22
2018-05-12T16:52:11.699Z,21.20
2018-05-12T16:54:39.393Z,21.17
2018-05-12T16:57:06.983Z,21.13
2018-05-12T16:59:34.611Z,21.04
2018-05-12T17:02:02.248Z,20.97
2018-05-12T17:04:29.806Z,20.88
2018-05-12T17:06:57.388Z,20.77
2018-05-12T17:09:24.950Z,20.63
2018-05-12T17:11:52.547Z,20.59
2018-05-12T17:14:20.241Z,20.53
2018-05-12T17:16:47.857Z,20.47
2018-05-12T17:19:15.432Z,20.35
2018-05-12T17:21:43.079Z,20.29
2018-05-12T17:24:10.733Z,20.25
2018-05-12T17:26:38.428Z,20.23
2018-05-12T17:29:06.439Z,20.16
2018-05-12T17:31:33.996Z,20.12
2018-05-12T17:34:01.569Z,20.08
2018-05-12T17:36:29.136Z,20.04
2018-05-12T17:38:56.732Z,20.01
2018-05-12T17:41:24.336Z,19.95
2018-05-12T17:43:51.956Z,19.90
2018-05-12T17:46:19.566Z,19.88
2018-05-12T17:48:47.183Z,19.79
2018-05-12T17:51:14.819Z,19.77
2018-05-12T17:53:42.371Z,19.69
2018-05-12T17:56:10.115Z,19.63
2018-05-12T17:58:37.761Z,19.59
2018-05-12T18:01:05.394Z,19.52
2018-05-12T18:03:33.068Z,19.57
2018-05-12T18:06:00.661Z,19.57
2018-05-12T18:08:28.229Z,19.50
2018-05-12T18:10:55.800Z,19.49
2018-05-12T18:13:23.389Z,19.44
2018-05-12T18:15:50.989Z,19.41
2018-05-12T18:18:18.806Z,19.38
2018-05-12T18:20:46.366Z,19.34
2018-05-12T18:23:14.044Z,19.33
2018-05-12T18:25:41.660Z,19.29
2018-05-12T18:28:09.219Z,19.29
2018-05-12T18:30:36.828Z,19.23
2018-05-12T18:33:04.437Z,19.21
2018-05-12T18:35:32.331Z,19.13
2018-05-12T18:38:00.027Z,19.10
2018-05-12T18:40:27.596Z,19.09
2018-05-12T18:42:55.228Z,19.05
2018-05-12T18:45:22.911Z,19.04
2018-05-12T18:47:50.513Z,19.00
2018-05-12T18:50:18.335Z,18.96
2018-05-12T18:52:46.017Z,18.91
2018-05-12T18:55:13.580Z,18.91
2018-05-12T18:57:41.159Z,18.86
2018-05-12T19:00:08.897Z,18.85
2018-05-12T19:02:37.883Z,18.81
2018-05-12T19:05:05.541Z,18.87
2018-05-12T19:07:33.103Z,18.84
2018-05-12T19:10:00.676Z,18.81
2018-05-12T19:12:28.261Z,18.78
2018-05-12T19:14:55.925Z,18.79
2018-05-12T19:17:23.909Z,18.82
2018-05-12T19:19:51.511Z,18.78
2018-05-12T19:22:19.284Z,18.78
2018-05-12T19:24:46.882Z,18.75
2018-05-12T19:27:14.522Z,18.77
2018-05-12T19:29:42.133Z,18.73
2018-05-12T19:32:09.704Z,18.68
2018-05-12T19:34:38.143Z,18.65
2018-05-12T19:37:05.820Z,18.57
2018-05-12T19:39:33.364Z,18.53
2018-05-12T19:42:00.997Z,18.51
2018-05-12T19:44:28.780Z,18.48
2018-05-12T19:46:56.468Z,18.40
2018-05-12T19:49:24.065Z,18.35
2018-05-12T19:51:51.728Z,18.34
2018-05-12T19:54:19.296Z,18.21
2018-05-12T19:56:46.906Z,18.15
2018-05-12T19:59:14.500Z,18.13
2018-05-12T20:01:42.078Z,18.01
2018-05-12T20:04:09.681Z,17.98
2018-05-12T20:06:37.244Z,17.92
2018-05-12T20:09:04.928Z,17.80
2018-05-12T20:11:32.481Z,17.73
2018-05-12T20:14:00.044Z,17.69
2018-05-12T20:16:27.683Z,17.63
2018-05-12T20:18:55.652Z,17.56
2018-05-12T20:21:23.326Z,17.53
2018-05-12T20:23:50.899Z,17.49
2018-05-12T20:26:18.526Z,17.34
2018-05-12T20:28:46.076Z,17.29
2018-05-12T20:31:13.668Z,17.30
2018-05-12T20:33:41.256Z,17.31
2018-05-12T20:36:08.852Z,17.25
2018-05-12T20:38:36.430Z,17.28
2018-05-12T20:41:04.965Z,17.27
2018-05-12T20:43:32.616Z,17.27
2018-05-12T20:46:00.235Z,17.25
2018-05-12T20:48:27.817Z,17.30
2018-05-12T20:50:55.405Z,17.24
2018-05-12T20:53:23.156Z,17.27
2018-05-12T20:55:50.770Z,17.16
2018-05-12T20:58:18.315Z,17.16
2018-05-12T21:00:46.116Z,17.19
2018-05-12T21:03:13.934Z,17.24
2018-05-12T21:05:41.497Z,17.21
2018-05-12T21:08:09.060Z,17.18
2018-05-12T21:10:36.612Z,17.13
2018-05-12T21:13:04.260Z,17.08
2018-05-12T21:15:31.827Z,17.07
2018-05-12T21:17:59.388Z,17.04
2018-05-12T21:20:26.977Z,17.01
2018-05-12T21:22:54.537Z,16.94
2018-05-12T21:25:22.104Z,16.93
2018-05-12T21:27:49.664Z,16.90
2018-05-12T21:30:17.534Z,16.92
2018-05-12T21:32:45.088Z,16.86
2018-05-12T21:35:12.869Z,16.81
2018-05-12T21:37:40.431Z,16.79
2018-05-12T21:40:08.172Z,16.75
2018-05-12T21:42:35.889Z,16.74
2018-05-12T21:45:03.513Z,16.71
2018-05-12T21:47:31.130Z,16.69
2018-05-12T21:49:58.684Z,16.61
2018-05-12T21:52:26.237Z,16.60
2018-05-12T21:54:53.973Z,16.51
2018-05-12T21:57:21.561Z,16.46
2018-05-12T21:59:49.188Z,16.43
2018-05-12T22:02:16.772Z,16.40
2018-05-12T22:04:44.397Z,16.33
2018-05-12T22:07:11.971Z,16.23
2018-05-12T22:09:39.537Z,16.16
2018-05-12T22:12:07.337Z,16.05
2018-05-12T22:14:35.034Z,15.98
2018-05-12T22:17:02.748Z,15.94
2018-05-12T22:19:30.309Z,15.87
2018-05-12T22:21:58.081Z,15.81
2018-05-12T22:24:25.640Z,15.76
2018-05-12T22:26:53.196Z,15.67
2018-05-12T22:29:20.766Z,15.51
2018-05-12T22:31:48.328Z,15.42
2018-05-12T22:34:16.065Z,15.42
2018-05-12T22:36:43.782Z,15.39
2018-05-12T22:39:11.638Z,15.32
2018-05-12T22:41:39.247Z,15.26
2018-05-12T22:44:06.800Z,15.18
2018-05-12T22:46:34.592Z,15.16
2018-05-12T22:49:02.144Z,15.12
2018-05-12T22:51:29.708Z,15.07
2018-05-12T22:53:57.423Z,15.03
2018-05-12T22:56:25.149Z,15.03
2018-05-12T22:58:52.883Z,15.03
2018-05-12T23:01:20.701Z,15.02
2018-05-12T23:03:48.260Z,14.96
2018-05-12T23:06:15.858Z,14.89
2018-05-12T23:08:43.424Z,14.77
2018-05-12T23:11:10.989Z,14.63
2018-05-12T23:13:38.792Z,14.51
2018-05-12T23:16:06.351Z,14.39
2018-05-12T23:18:33.940Z,14.37
2018-05-12T23:21:01.517Z,14.36
2018-05-12T23:23:29.081Z,14.35
2018-05-12T23:25:56.653Z,14.41
2018-05-12T23:28:24.217Z,14.44
2018-05-12T23:30:51.915Z,14.44
2018-05-12T23:33:19.518Z,14.43
2018-05-12T23:35:47.682Z,14.35
2018-05-12T23:38:15.381Z,14.36
2018-05-12T23:40:42.960Z,14.31
2018-05-12T23:43:10.569Z,14.32
2018-05-12T23:45:38.133Z,14.27
2018-05-12T23:48:05.691Z,14.22
2018-05-12T23:50:33.461Z,14.17
2018-05-12T23:53:01.020Z,14.13
2018-05-12T23:55:28.581Z,14.10
2018-05-12T23:57:56.153Z,14.00
